Tualatin, Oregon
Current Conditions -  °F | °C
As of 12:53 PM on Thursday 23 Oct 2014 (Local Time) from KUAO Reporting Station
Few Clouds Few Clouds  
Wind Chill: 59°   Ceiling: Unl
Heat Index: 59°   Visibility: 10mi
Dew Point: 53°   Wind: 14mph
Humidity: 81%   Direction: 190°S
Pressure: 29.9"   Gusts: 25mph
Location:  45.38°N, 122.75°W
Report Text: KUAO 231953Z AUTO 19012G22KT 10SM FEW016 15/12 A2990 RMK AO2 SLP125 T01500117
Loading
Personal Weather Stations






























Interactive Weather Map
Tropical Storm Tracking
New forecast layout! Learn more

10-Day Weather Forecast

Advertisements
Track Severe Weather on mobile